M I D A S
Marine Information and Data Acquisition System
Tripno 987 of the Zeeleeuw from 2005-11-24 10:02:20 to 2005-11-24 11:46:52
Back to CruiseResearch ActivitiesStationsMapUnderway DataData graphs

EquipmentUnitsComment
TimeDGPSUTC
LatitudeDGPSDM.mWGS84
LongitudeDGPSDM.mWGS84
HeadingGyrodeg 
SOGDGPSknotsSpeed over ground
COGDGPSdegCourse over ground
DepthEcho soundermeters200 kHz
Missing or incorrect values are displayed as -999
Navigation data collected by the RV Zeeleeuw from 2005-11-24 06:05:56 to 2005-11-24 12:00:24
Time Latitude Longitude Heading SOG COG Depth
2005-11-24 06:07:00 51°13.598 2°56.094 129.4 -999 290 -999
2005-11-24 06:08:00 51°13.599 2°56.094 129.4 -999 221 -999
2005-11-24 06:09:00 51°13.598 2°56.095 127.2 -999 227 -999
2005-11-24 06:10:00 51°13.598 2°56.094 127.7 -999 253 -999
2005-11-24 06:11:00 51°13.599 2°56.095 126.5 -999 189 -999
2005-11-24 06:12:00 51°13.598 2°56.095 113.2 0.1 188 -999
2005-11-24 06:13:00 51°13.602 2°56.064 109.3 1.9 286 -999
2005-11-24 06:14:00 51°13.596 2°56.08 124.3 2.4 118 11.1
2005-11-24 06:15:00 51°13.56 2°56.165 128.5 4.6 127 11.7
2005-11-24 06:16:00 51°13.534 2°56.214 162.4 0.4 141 11.9
2005-11-24 06:17:00 51°13.542 2°56.214 194.5 0.3 177 -999
2005-11-24 06:18:00 51°13.535 2°56.212 231.8 0.6 51 12.5
2005-11-24 06:19:00 51°13.538 2°56.202 271.8 2 270 -999
2005-11-24 06:20:00 51°13.554 2°56.15 305.9 2 302 11.9
2005-11-24 06:21:00 51°13.564 2°56.123 302.6 1.1 300 11.7
2005-11-24 06:22:00 51°13.574 2°56.094 304.5 1.5 301 12.2
2005-11-24 06:23:00 51°13.589 2°56.06 307.3 1.4 305 12
2005-11-24 06:24:00 51°13.601 2°56.034 309.6 1 311 12.3
2005-11-24 06:25:00 51°13.608 2°56.024 311.7 0.7 314 11.5
2005-11-24 06:26:00 51°13.622 2°56 307 1.6 309 11.2
2005-11-24 06:27:00 51°13.642 2°55.953 301.9 2.7 299 11.1
2005-11-24 06:28:00 51°13.677 2°55.857 308.2 5.3 301 10.7
2005-11-24 06:29:00 51°13.739 2°55.738 320.8 5.9 317 11.4
2005-11-24 06:30:00 51°13.815 2°55.642 331 6.1 326 12
2005-11-24 06:31:00 51°13.91 2°55.57 342.9 6.6 338 12.1
2005-11-24 06:32:00 51°14.016 2°55.501 344 7.1 339 12.3
2005-11-24 06:33:00 51°14.135 2°55.42 340 8.1 336 12.2
2005-11-24 06:34:00 51°14.245 2°55.296 325.1 8.6 318 13.2
2005-11-24 06:35:00 51°14.342 2°55.101 309 9.8 304 12
2005-11-24 06:36:00 51°14.456 2°54.893 320 11.1 317 12
2005-11-24 06:37:00 51°14.576 2°54.642 305.6 12.4 304 11.6
2005-11-24 06:38:00 51°14.688 2°54.364 303.3 12.4 302 11.6
2005-11-24 06:39:00 51°14.791 2°54.079 301.1 12.4 300 11.3
2005-11-24 06:40:00 51°14.891 2°53.787 301.4 12.6 299 11.1
2005-11-24 06:41:00 51°14.99 2°53.493 297.9 12.5 295 11.3
2005-11-24 06:42:00 51°15.08 2°53.193 296.8 12.5 295 11.7
2005-11-24 06:43:00 51°15.169 2°52.894 296.5 12.5 293 12.1
2005-11-24 06:44:00 51°15.248 2°52.589 294.6 12.4 292 12.5
2005-11-24 06:45:00 51°15.327 2°52.284 294.7 12.5 292 13.1
2005-11-24 06:46:00 51°15.408 2°51.98 295.4 12.5 293 13.7
2005-11-24 06:47:00 51°15.488 2°51.676 292.7 12.4 289 14
2005-11-24 06:48:00 51°15.544 2°51.362 288 12.3 286 14.3
2005-11-24 06:49:00 51°15.587 2°51.045 279.6 12.2 276 14.5
2005-11-24 06:50:00 51°15.597 2°50.724 273.8 12.1 271 14.5
2005-11-24 06:51:00 51°15.591 2°50.403 268.1 12.1 266 14.6
2005-11-24 06:52:00 51°15.577 2°50.083 269 12.1 266 14.6
2005-11-24 06:53:00 51°15.564 2°49.763 268.9 12.1 267 14.7
2005-11-24 06:54:00 51°15.552 2°49.445 269.2 12 267 14.5
2005-11-24 06:55:00 51°15.54 2°49.126 269.3 12.1 266 13.5
2005-11-24 06:56:00 51°15.529 2°48.807 269 12.1 267 12.3
2005-11-24 06:57:00 51°15.519 2°48.488 269.2 12.1 267 12
2005-11-24 06:58:00 51°15.507 2°48.168 269.1 12.1 267 12.1
2005-11-24 06:59:00 51°15.496 2°47.846 269.7 12.1 267 12.5
2005-11-24 07:00:00 51°15.486 2°47.526 269.2 12.1 267 13.2
2005-11-24 07:01:00 51°15.477 2°47.207 269.4 12 267 14.2
2005-11-24 07:02:00 51°15.465 2°46.89 269.8 11.9 267 15.4
2005-11-24 07:03:00 51°15.447 2°46.577 266.1 11.9 264 16.3
2005-11-24 07:04:00 51°15.427 2°46.263 266.3 11.9 263 16.8
2005-11-24 07:05:00 51°15.406 2°45.949 266 11.9 264 17.5
2005-11-24 07:06:00 51°15.385 2°45.636 266.3 11.9 264 18.1
2005-11-24 07:07:00 51°15.367 2°45.322 266.2 12 265 19.2
2005-11-24 07:08:00 51°15.349 2°45.006 266.2 12 265 19.7
2005-11-24 07:09:00 51°15.331 2°44.689 266.2 12 265 19.1
2005-11-24 07:10:00 51°15.324 2°44.37 269.2 12 269 17.7
2005-11-24 07:11:00 51°15.321 2°44.05 269.4 12.1 269 15.4
2005-11-24 07:12:00 51°15.318 2°43.731 269.4 12 269 14.5
2005-11-24 07:13:00 51°15.316 2°43.411 269.5 12.1 269 14.8
2005-11-24 07:14:00 51°15.314 2°43.092 268.5 12.1 269 14.9
2005-11-24 07:15:00 51°15.326 2°42.772 274.1 12.1 274 14.3
2005-11-24 07:16:00 51°15.341 2°42.453 274.8 12.1 274 12.5
2005-11-24 07:17:00 51°15.357 2°42.132 274.7 12.2 275 11
2005-11-24 07:18:00 51°15.373 2°41.81 274.3 12.2 274 12.2
2005-11-24 07:19:00 51°15.389 2°41.486 274.6 12.2 275 12.4
2005-11-24 07:20:00 51°15.405 2°41.18 274.8 9.2 276 12.4
2005-11-24 07:21:00 51°15.438 2°41.042 296.7 4.1 307 13.2
2005-11-24 07:22:00 51°15.47 2°41.014 309.1 1.2 37 13.3
2005-11-24 07:23:00 51°15.489 2°41.036 335.2 1.4 40 12.9
2005-11-24 07:24:00 51°15.507 2°41.059 345.4 1.5 40 12.9
2005-11-24 07:25:00 51°15.526 2°41.084 345.3 1.6 29 13.1
2005-11-24 07:26:00 51°15.583 2°41.006 290.2 7 289 13.3
2005-11-24 07:27:00 51°15.587 2°40.729 266.9 11.9 265 14.4
2005-11-24 07:28:00 51°15.567 2°40.412 265.5 12.1 265 16.7
2005-11-24 07:29:00 51°15.549 2°40.092 265.6 12.1 265 18.6
2005-11-24 07:30:00 51°15.532 2°39.775 266.1 12 265 19.6
2005-11-24 07:31:00 51°15.508 2°39.458 263.4 12.1 263 20.3
2005-11-24 07:32:00 51°15.484 2°39.142 263.4 12 262 20
2005-11-24 07:33:00 51°15.458 2°38.825 263.8 12.1 262 18.7
2005-11-24 07:34:00 51°15.432 2°38.509 263.8 12 262 15.6
2005-11-24 07:35:00 51°15.404 2°38.195 263.8 11.9 262 12.7
2005-11-24 07:36:00 51°15.375 2°37.882 264 11.9 261 11.4
2005-11-24 07:37:00 51°15.345 2°37.571 264.3 12 261 10.6
2005-11-24 07:38:00 51°15.318 2°37.258 264.2 11.9 261 13.6
2005-11-24 07:39:00 51°15.291 2°36.944 264.2 11.9 262 13.7
2005-11-24 07:40:00 51°15.263 2°36.63 263.7 12 262 14.5
2005-11-24 07:41:00 51°15.236 2°36.316 263.6 11.9 261 16.6
2005-11-24 07:42:00 51°15.209 2°36.003 264.1 12 262 17.2
2005-11-24 07:43:00 51°15.182 2°35.692 264.2 11.8 262 20.8
2005-11-24 07:44:00 51°15.152 2°35.382 263.7 11.8 261 24.9
2005-11-24 07:45:00 51°15.122 2°35.073 264.2 11.8 261 26.7
2005-11-24 07:46:00 51°15.092 2°34.763 264.3 11.9 261 27.6
2005-11-24 07:47:00 51°15.06 2°34.452 262.9 11.9 260 27.7
2005-11-24 07:48:00 51°15.023 2°34.141 259.1 12 257 26.9
2005-11-24 07:49:00 51°14.976 2°33.83 259.1 12.1 257 26.7
2005-11-24 07:50:00 51°14.93 2°33.519 259.1 12.1 257 25.9
2005-11-24 07:51:00 51°14.895 2°33.239 264.5 8 267 23.9
2005-11-24 07:52:00 51°14.933 2°33.078 300.7 6.1 308 21.9
2005-11-24 07:53:00 51°14.99 2°33.025 322.6 2.3 354 20.2
2005-11-24 07:54:00 51°15.004 2°33.051 347 1.4 63 -999
2005-11-24 07:55:00 51°15.016 2°33.081 0.3 1.4 54 21.1
2005-11-24 07:56:00 51°15.03 2°33.113 11.6 1.5 56 20.2
2005-11-24 07:57:00 51°15.045 2°33.148 15.8 1.5 53 20.3
2005-11-24 07:58:00 51°15.061 2°33.181 9.6 1.5 51 21.3
2005-11-24 07:59:00 51°15.078 2°33.214 0.8 1.7 49 21
2005-11-24 08:00:00 51°15.105 2°33.241 341.8 2.5 10 22
2005-11-24 08:01:00 51°15.147 2°33.219 294.5 2.5 322 19.5
2005-11-24 08:02:00 51°15.156 2°33.171 243.1 2.1 246 17.3
2005-11-24 08:03:00 51°15.106 2°33.133 198.1 4.4 188 19.1
2005-11-24 08:04:00 51°15.031 2°33.096 197.9 5.2 187 20.4
2005-11-24 08:05:00 51°14.97 2°33.051 223.8 2.9 212 19.9
2005-11-24 08:06:00 51°14.948 2°33.025 231.9 0.6 211 20.1
2005-11-24 08:07:00 51°14.939 2°33 256.5 2.5 267 20.6
2005-11-24 08:08:00 51°14.954 2°32.992 313.8 1.4 60 19.6
2005-11-24 08:09:01 51°14.964 2°33.023 344 1.5 35 -999
2005-11-24 08:10:00 51°14.983 2°33.049 344.7 1.5 47 19.6
2005-11-24 08:11:00 51°15 2°33.08 352.5 1.5 49 20.4
2005-11-24 08:12:00 51°15.014 2°33.11 349.6 1.4 52 21.1
2005-11-24 08:13:00 51°15.029 2°33.14 348.1 1.4 55 21.2
2005-11-24 08:14:00 51°15.042 2°33.173 352.8 1.4 55 21.3
2005-11-24 08:15:00 51°15.057 2°33.207 352.3 1.6 57 22
2005-11-24 08:16:00 51°15.07 2°33.243 354.1 1.5 56 21.7
2005-11-24 08:17:00 51°15.084 2°33.277 356.3 1.4 58 21.4
2005-11-24 08:18:00 51°15.097 2°33.31 355.9 1.5 53 22.8
2005-11-24 08:19:00 51°15.111 2°33.342 356.3 1.4 53 22.1
2005-11-24 08:20:00 51°15.125 2°33.375 354.2 1.4 53 23
2005-11-24 08:21:00 51°15.141 2°33.407 348.1 1.5 49 22.6
2005-11-24 08:22:00 51°15.157 2°33.438 345.7 1.6 51 23.3
2005-11-24 08:23:00 51°15.173 2°33.471 350.5 1.5 53 23.3
2005-11-24 08:24:00 51°15.202 2°33.491 330.4 2.6 359 22.1
2005-11-24 08:25:00 51°15.238 2°33.447 273.4 2.8 286 21.9
2005-11-24 08:26:00 51°15.206 2°33.39 213.5 4 207 21.8
2005-11-24 08:27:00 51°15.142 2°33.318 226.8 5 225 20.9
2005-11-24 08:28:00 51°15.083 2°33.219 226.7 5.3 222 20.7
2005-11-24 08:29:00 51°15.02 2°33.123 231.5 4.9 230 20
2005-11-24 08:30:00 51°14.984 2°33.056 232.5 2.3 223 19.5
2005-11-24 08:31:00 51°14.963 2°33.028 231.6 1.1 216 18.7
2005-11-24 08:32:00 51°14.963 2°33.039 238.7 1.3 67 19.1
2005-11-24 08:33:00 51°14.976 2°33.075 214.5 1.7 54 20.9
2005-11-24 08:34:00 51°14.996 2°33.108 187.2 1.6 42 20.9
2005-11-24 08:35:00 51°15.014 2°33.135 164.1 1.3 48 20.3
2005-11-24 08:36:00 51°15.032 2°33.159 143.7 1.3 35 20.9
2005-11-24 08:37:01 51°15.046 2°33.179 141.8 2.6 114 21.2
2005-11-24 08:38:00 51°15.049 2°33.21 164.9 2.2 14 21
2005-11-24 08:39:00 51°15.048 2°33.237 180.7 0.9 112 22.1
2005-11-24 08:40:00 51°15.047 2°33.264 183.2 1 89 22.4
2005-11-24 08:41:00 51°15.05 2°33.292 178.7 1.2 78 22.8
2005-11-24 08:42:00 51°15.057 2°33.322 168.7 1.3 67 22.5
2005-11-24 08:43:00 51°15.066 2°33.349 160.7 1.1 62 22.3
2005-11-24 08:44:00 51°15.076 2°33.377 152.4 1.3 58 22.6
2005-11-24 08:45:00 51°15.062 2°33.411 179.9 2.6 160 22.6
2005-11-24 08:46:00 51°15.026 2°33.365 254 3.5 259 22.9
2005-11-24 08:47:00 51°15.012 2°33.253 241.2 4.8 242 21.9
2005-11-24 08:48:00 51°14.981 2°33.136 232.7 4.3 228 20.9
2005-11-24 08:49:00 51°14.952 2°33.08 249.2 1.9 247 20.5
2005-11-24 08:50:00 51°14.953 2°33.043 265.3 1.3 284 20.7
2005-11-24 08:51:00 51°14.955 2°33.025 253.9 0.7 263 18.5
2005-11-24 08:52:00 51°14.956 2°33.027 240.5 0.1 147 18.6
2005-11-24 08:53:00 51°14.958 2°33.004 285.6 1 341 19.2
2005-11-24 08:54:00 51°14.966 2°33.027 332.4 1 65 -999
2005-11-24 08:55:00 51°14.978 2°33.047 337.5 1.3 36 20.2
2005-11-24 08:56:00 51°14.997 2°33.063 329 1.4 22 20.1
2005-11-24 08:57:00 51°15.019 2°33.07 317.1 1.3 9 20.2
2005-11-24 08:58:00 51°15.039 2°33.071 303.4 1.2 -999 18.7
2005-11-24 08:59:00 51°15.033 2°33.014 225.8 3 213 17.8
2005-11-24 09:00:00 51°14.975 2°32.984 219.9 3.9 211 19.5
2005-11-24 09:01:00 51°14.912 2°32.953 189.7 4.4 180 19.8
2005-11-24 09:02:00 51°14.869 2°32.915 234.8 2 227 20.2
2005-11-24 09:03:00 51°14.856 2°32.879 254.3 1.4 257 20.8
2005-11-24 09:04:00 51°14.864 2°32.859 286.9 1 348 19.6
2005-11-24 09:05:00 51°14.88 2°32.873 320.1 1.1 43 19.8
2005-11-24 09:06:00 51°14.893 2°32.898 344.1 1.2 50 19.9
2005-11-24 09:07:00 51°14.904 2°32.924 357.7 1.1 58 19.5
2005-11-24 09:08:00 51°14.914 2°32.951 359 1.1 61 19.7
2005-11-24 09:09:00 51°14.929 2°32.973 348.5 1.6 18 19.8
2005-11-24 09:10:00 51°14.963 2°32.943 293.9 2.8 306 17.6
2005-11-24 09:11:00 51°14.974 2°32.876 265.3 2.8 271 16.2
2005-11-24 09:12:00 51°14.968 2°32.797 256.6 3 257 14.2
2005-11-24 09:13:00 51°14.946 2°32.764 215.6 1.3 199 14.2
2005-11-24 09:14:00 51°14.934 2°32.773 200.6 0.8 113 14.8
2005-11-24 09:15:00 51°14.931 2°32.796 184.4 0.9 91 15
2005-11-24 09:16:00 51°14.932 2°32.822 173.5 0.9 86 15.9
2005-11-24 09:17:00 51°14.935 2°32.85 164.2 1 80 16.8
2005-11-24 09:18:00 51°14.938 2°32.878 164.4 1.1 85 17.6
2005-11-24 09:19:00 51°14.94 2°32.904 165.4 1.1 64 17.5
2005-11-24 09:20:00 51°14.964 2°32.918 148.7 1.5 14 17.4
2005-11-24 09:21:00 51°14.99 2°32.919 133.6 1.4 2 16.3
2005-11-24 09:22:00 51°15.006 2°32.927 124.6 0.9 37 16.2
2005-11-24 09:23:00 51°15.017 2°32.948 131.7 1.1 57 16.9
2005-11-24 09:24:00 51°15.025 2°32.973 142.9 1.1 68 17
2005-11-24 09:25:00 51°15.029 2°32.998 160.2 1.1 66 16.8
2005-11-24 09:26:00 51°15.055 2°33.011 148.2 1.6 11 16.3
2005-11-24 09:27:00 51°15.073 2°33.022 130.9 1.1 34 15.9
2005-11-24 09:28:00 51°15.084 2°33.044 132.9 1.1 61 16.5
2005-11-24 09:29:00 51°15.089 2°33.07 150.6 1 73 17
2005-11-24 09:30:00 51°15.093 2°33.096 161.9 1.1 73 17.6
2005-11-24 09:31:00 51°15.098 2°33.122 163.2 1.1 77 18.1
2005-11-24 09:32:00 51°15.105 2°33.15 160.9 1.2 65 19.1
2005-11-24 09:33:00 51°15.113 2°33.178 154.6 1.2 68 19.8
2005-11-24 09:34:00 51°15.121 2°33.205 151.4 1.1 69 20
2005-11-24 09:35:00 51°15.126 2°33.235 156.2 1.3 97 20.2
2005-11-24 09:36:00 51°15.108 2°33.267 178.6 1.8 143 20
2005-11-24 09:37:00 51°15.076 2°33.277 201 1.9 178 21.4
2005-11-24 09:38:00 51°15.048 2°33.257 229.7 1.8 225 21.2
2005-11-24 09:39:00 51°15.04 2°33.239 247.2 0.3 255 20.8
2005-11-24 09:40:00 51°15.048 2°33.234 264.9 1 304 21.4
2005-11-24 09:41:00 51°15.058 2°33.216 268.3 0.9 323 20.2
2005-11-24 09:42:00 51°15.072 2°33.217 281.1 1 17 21.1
2005-11-24 09:43:00 51°15.091 2°33.204 277.4 1.3 318 19.9
2005-11-24 09:44:00 51°15.105 2°33.191 268.8 0.9 356 19.8
2005-11-24 09:45:00 51°15.122 2°33.194 284.3 1.2 334 18.9
2005-11-24 09:46:00 51°15.135 2°33.169 263.3 1.2 292 17.9
2005-11-24 09:47:00 51°15.141 2°33.155 237.6 0.3 327 17.2
2005-11-24 09:48:00 51°15.144 2°33.163 215.3 0.6 71 17.2
2005-11-24 09:49:00 51°15.136 2°33.172 213.1 0.8 161 18.1
2005-11-24 09:50:00 51°15.123 2°33.171 224.3 1 201 17.9
2005-11-24 09:51:00 51°15.11 2°33.151 234.8 0.8 232 18
2005-11-24 09:52:00 51°15.105 2°33.143 240.6 -999 302 18.5
2005-11-24 09:53:00 51°15.108 2°33.14 262 0.2 354 18.1
2005-11-24 09:54:00 51°15.109 2°33.103 264.1 2.1 264 16.8
2005-11-24 09:55:00 51°15.123 2°33.097 313 1.1 21 15.7
2005-11-24 09:56:00 51°15.139 2°33.114 341.2 1.2 25 16.3
2005-11-24 09:57:00 51°15.161 2°33.127 341.4 1.6 16 15.5
2005-11-24 09:58:00 51°15.186 2°33.133 336.9 1.6 6 14.9
2005-11-24 09:59:00 51°15.213 2°33.134 332.6 1.5 356 14.1
2005-11-24 10:00:00 51°15.237 2°33.137 333.8 1.3 8 13.3
2005-11-24 10:01:00 51°15.261 2°33.141 331.3 1.5 8 13.1
2005-11-24 10:02:00 51°15.282 2°33.149 337.8 1.4 9 12.5
2005-11-24 10:03:00 51°15.323 2°33.13 323.5 3.6 328 11.5
2005-11-24 10:04:00 51°15.345 2°33.046 261.6 3.6 259 10.7
2005-11-24 10:05:00 51°15.267 2°32.969 208.5 7.2 204 10.6
2005-11-24 10:06:00 51°15.152 2°32.869 212.5 7.8 205 11.1
2005-11-24 10:07:00 51°15.051 2°32.871 178.2 5.5 170 13.3
2005-11-24 10:08:00 51°15.009 2°32.9 157.1 1.5 126 14.7
2005-11-24 10:09:00 51°15 2°32.929 162.4 1 115 15.7
2005-11-24 10:10:00 51°14.992 2°32.957 166.4 1.1 126 16.7
2005-11-24 10:11:00 51°14.987 2°32.979 170 1 87 17.8
2005-11-24 10:12:00 51°14.988 2°33.002 165.9 0.9 83 19.3
2005-11-24 10:13:00 51°14.99 2°33.026 162.5 0.8 87 19
2005-11-24 10:14:00 51°14.995 2°33.049 159.6 1 73 18.9
2005-11-24 10:15:00 51°15.001 2°33.072 152.5 0.9 65 18.7
2005-11-24 10:16:00 51°15.008 2°33.095 150.4 0.8 61 19.9
2005-11-24 10:17:00 51°15.014 2°33.117 148.9 0.9 62 20
2005-11-24 10:18:01 51°15.02 2°33.144 149.9 1.1 76 20
2005-11-24 10:19:00 51°15.023 2°33.166 154 0.8 81 20
2005-11-24 10:20:00 51°15.028 2°33.189 153.2 0.9 72 20.8
2005-11-24 10:21:00 51°15.03 2°33.212 157.7 1 80 20.8
2005-11-24 10:22:00 51°15.033 2°33.237 158.1 0.9 77 20.8
2005-11-24 10:23:00 51°15.038 2°33.264 155.4 0.9 72 20.9
2005-11-24 10:24:00 51°15.044 2°33.288 150.3 1 68 21.3
2005-11-24 10:25:00 51°15.049 2°33.314 149 1 72 21.8
2005-11-24 10:26:00 51°15.056 2°33.341 143.2 1.2 72 20.9
2005-11-24 10:27:00 51°15.057 2°33.374 138.3 2.1 109 22.5
2005-11-24 10:28:00 51°15.061 2°33.457 74.8 3.3 66 22.3
2005-11-24 10:29:00 51°15.107 2°33.522 21.5 4.5 11 22.7
2005-11-24 10:30:00 51°15.164 2°33.472 297.5 3.9 299 21.5
2005-11-24 10:31:00 51°15.15 2°33.382 231.7 4.1 229 21.7
2005-11-24 10:32:00 51°15.101 2°33.277 236.6 5.2 236 20.3
2005-11-24 10:33:00 51°15.034 2°33.183 231.7 5.4 225 19.9
2005-11-24 10:34:00 51°14.976 2°33.073 238.3 4.9 235 19
2005-11-24 10:35:00 51°14.959 2°33.014 247.5 0.5 267 18.7
2005-11-24 10:36:00 51°14.969 2°33.029 251.1 1.1 53 18.1
2005-11-24 10:37:00 51°14.983 2°33.06 273.4 1.5 58 18.3
2005-11-24 10:38:00 51°14.99 2°33.098 304.2 1.3 84 19.3
2005-11-24 10:39:00 51°14.991 2°33.134 325.5 1.3 92 19.6
2005-11-24 10:40:00 51°14.99 2°33.163 343.7 1 86 20.2
2005-11-24 10:41:00 51°15.024 2°33.199 37.6 5.1 38 20.9
2005-11-24 10:42:00 51°15.024 2°33.399 118.3 9.9 112 22.1
2005-11-24 10:43:00 51°14.967 2°33.71 103.7 13.1 99 24.8
2005-11-24 10:44:00 51°14.931 2°34.047 103.4 13 102 25.3
2005-11-24 10:45:00 51°14.884 2°34.387 106.9 12.9 105 25.6
2005-11-24 10:46:00 51°14.84 2°34.72 109.1 12.7 104 24.3
2005-11-24 10:47:00 51°14.79 2°35.056 111.3 13.1 107 20.2
2005-11-24 10:48:00 51°14.763 2°35.385 86.2 12.6 79 18
2005-11-24 10:49:00 51°14.841 2°35.702 67.1 13.2 63 17
2005-11-24 10:50:00 51°14.929 2°36.015 75.4 13 69 16.3
2005-11-24 10:51:00 51°14.976 2°36.347 90.9 12.8 89 15
2005-11-24 10:52:00 51°14.961 2°36.687 104 12.7 101 13.4
2005-11-24 10:53:00 51°14.941 2°37.021 101.6 12.7 95 10.6
2005-11-24 10:54:00 51°14.916 2°37.359 99.6 12.7 96 9.5
2005-11-24 10:55:00 51°14.891 2°37.692 102.6 13 98 10.2
2005-11-24 10:56:00 51°14.861 2°38.029 105.7 13.1 99 13
2005-11-24 10:57:00 51°14.842 2°38.364 101.1 12.5 97 15.6
2005-11-24 10:58:00 51°14.82 2°38.7 100.2 13 97 16.3
2005-11-24 10:59:00 51°14.797 2°39.038 98.8 13.1 95 16
2005-11-24 11:00:00 51°14.767 2°39.378 103.9 12.6 100 15
2005-11-24 11:01:00 51°14.731 2°39.71 102.7 12.5 99 14.5
2005-11-24 11:02:00 51°14.701 2°40.038 105 12.5 103 12.7
2005-11-24 11:03:00 51°14.666 2°40.374 105.2 13 103 12
2005-11-24 11:04:00 51°14.633 2°40.705 103.6 12.6 96 12.4
2005-11-24 11:05:00 51°14.596 2°41.039 103.7 13.1 99 12.9
2005-11-24 11:06:00 51°14.562 2°41.369 103.1 12.4 101 13.6
2005-11-24 11:07:00 51°14.554 2°41.702 95 12.6 90 13.1
2005-11-24 11:08:00 51°14.543 2°42.041 98.7 13 94 12.2
2005-11-24 11:09:00 51°14.536 2°42.384 94.9 13 89 16.3
2005-11-24 11:10:00 51°14.526 2°42.726 95.4 13.1 93 17.1
2005-11-24 11:11:00 51°14.512 2°43.073 99.9 12.9 96 16.9
2005-11-24 11:12:00 51°14.511 2°43.415 90.8 12.7 87 16.2
2005-11-24 11:13:00 51°14.522 2°43.755 90.9 12.8 86 15.7
2005-11-24 11:14:00 51°14.527 2°44.093 92.2 12.4 90 14.8
2005-11-24 11:15:00 51°14.527 2°44.431 94 12.7 90 13.6
2005-11-24 11:16:00 51°14.542 2°44.77 86.5 12.4 83 12
2005-11-24 11:17:00 51°14.562 2°45.106 88.6 13 84 10.3
2005-11-24 11:18:00 51°14.579 2°45.441 88.5 12.3 87 8.6
2005-11-24 11:19:00 51°14.595 2°45.769 90 12.4 88 5.8
2005-11-24 11:20:00 51°14.605 2°46.103 93.5 12.7 88 9.2
2005-11-24 11:21:00 51°14.626 2°46.442 87.8 13.1 86 11.4
2005-11-24 11:22:00 51°14.647 2°46.784 89.2 12.8 85 12.3
2005-11-24 11:23:00 51°14.671 2°47.117 87 13 84 12.3
2005-11-24 11:24:00 51°14.693 2°47.453 91 12.6 88 11.8
2005-11-24 11:25:00 51°14.71 2°47.788 87.3 12.8 84 11.1
2005-11-24 11:26:00 51°14.718 2°48.122 91.2 12.5 89 10.9
2005-11-24 11:27:00 51°14.729 2°48.454 89.8 12.6 88 11.5
2005-11-24 11:28:00 51°14.742 2°48.793 87.9 13 87 11.8
2005-11-24 11:29:00 51°14.749 2°49.139 91.9 13 89 11.9
2005-11-24 11:30:00 51°14.754 2°49.48 91.1 12.9 91 11.8
2005-11-24 11:31:00 51°14.758 2°49.826 90.8 13.1 89 11.6
2005-11-24 11:32:00 51°14.767 2°50.166 90.1 12.5 86 11.5
2005-11-24 11:33:00 51°14.776 2°50.5 89.9 12.9 87 11.2
2005-11-24 11:34:00 51°14.781 2°50.837 91.9 12.7 89 10.9
2005-11-24 11:35:00 51°14.782 2°51.176 93.6 12.8 91 10.5
2005-11-24 11:36:00 51°14.789 2°51.512 88.6 12.6 86 10.1
2005-11-24 11:37:00 51°14.778 2°51.843 95 12.6 92 9.5
2005-11-24 11:38:00 51°14.773 2°52.177 94.3 12.8 92 9.2
2005-11-24 11:39:00 51°14.773 2°52.514 91.9 12.6 90 9
2005-11-24 11:40:00 51°14.769 2°52.847 96.5 12.6 95 8.9
2005-11-24 11:41:00 51°14.758 2°53.186 96.7 13 96 8.8
2005-11-24 11:42:00 51°14.747 2°53.529 89.3 13.1 86 9.2
2005-11-24 11:43:00 51°14.724 2°53.866 104.8 12.8 102 9.4
2005-11-24 11:44:00 51°14.659 2°54.182 112 12.3 109 9.6
2005-11-24 11:45:00 51°14.58 2°54.491 115.2 12.6 113 9.6
2005-11-24 11:46:00 51°14.477 2°54.768 124.7 12 124 9.7
2005-11-24 11:47:00 51°14.367 2°55.024 127.7 11.1 125 9.2
2005-11-24 11:48:00 51°14.265 2°55.24 133.4 9.9 131 10.2
2005-11-24 11:49:00 51°14.142 2°55.403 153.7 9.4 153 10.2
2005-11-24 11:50:00 51°14.02 2°55.494 159.1 7.6 157 9.5
2005-11-24 11:51:00 51°13.91 2°55.577 158.8 7.3 156 10.2
2005-11-24 11:52:00 51°13.804 2°55.661 153.1 7.1 150 9.6
2005-11-24 11:53:00 51°13.717 2°55.783 136.3 6.5 131 12
2005-11-24 11:54:00 51°13.657 2°55.902 129.9 5 127 8.9
2005-11-24 11:55:00 51°13.62 2°55.993 124.1 3.6 120 9.9
2005-11-24 11:56:00 51°13.595 2°56.072 118.4 2.9 114 8.6
2005-11-24 11:57:00 51°13.582 2°56.12 122.2 0.5 120 7.5
2005-11-24 11:58:00 51°13.577 2°56.13 131.6 0.4 117 8
2005-11-24 11:59:01 51°13.579 2°56.136 125.6 0.1 49 -999
2005-11-24 12:00:04 51°13.579 2°56.136 128.9 0.2 224 -999